createdAt,value
2018-06-23T00:01:10.192Z,1.10
2018-06-23T00:03:38.486Z,1.83
2018-06-23T00:06:06.765Z,1.00
2018-06-23T00:08:35.033Z,1.20
2018-06-23T00:11:03.299Z,1.60
2018-06-23T00:13:31.555Z,1.10
2018-06-23T00:15:59.820Z,0.50
2018-06-23T00:18:28.056Z,1.30
2018-06-23T00:20:56.267Z,0.77
2018-06-23T00:23:24.463Z,1.07
2018-06-23T00:25:58.018Z,1.30
2018-06-23T00:28:26.249Z,0.93
2018-06-23T00:30:54.524Z,1.30
2018-06-23T00:33:22.809Z,1.07
2018-06-23T00:35:51.050Z,1.00
2018-06-23T00:38:19.323Z,1.10
2018-06-23T00:40:47.562Z,0.80
2018-06-23T00:43:15.822Z,0.80
2018-06-23T00:45:44.042Z,1.27
2018-06-23T00:48:12.290Z,1.07
2018-06-23T00:50:40.490Z,1.00
2018-06-23T00:53:08.675Z,1.53
2018-06-23T00:55:36.924Z,1.00
2018-06-23T00:58:05.172Z,1.50
2018-06-23T01:00:33.449Z,0.90
2018-06-23T01:03:01.635Z,1.30
2018-06-23T01:05:29.769Z,0.80
2018-06-23T01:07:58.125Z,0.90
2018-06-23T01:10:26.358Z,0.90
2018-06-23T01:12:54.621Z,1.30
2018-06-23T01:15:22.857Z,1.30
2018-06-23T01:17:51.043Z,1.87
2018-06-23T01:20:19.239Z,1.10
2018-06-23T01:22:47.436Z,1.77
2018-06-23T01:25:15.701Z,1.50
2018-06-23T01:27:43.942Z,1.23
2018-06-23T01:30:12.248Z,0.90
2018-06-23T01:32:40.427Z,0.80
2018-06-23T01:35:08.685Z,1.20
2018-06-23T01:37:36.946Z,1.23
2018-06-23T01:40:05.193Z,0.97
2018-06-23T01:42:33.476Z,1.23
2018-06-23T01:45:01.740Z,0.80
2018-06-23T01:47:29.957Z,0.80
2018-06-23T01:49:58.232Z,1.03
2018-06-23T01:52:26.473Z,1.23
2018-06-23T01:54:54.725Z,0.77
2018-06-23T01:57:22.973Z,0.90
2018-06-23T01:59:51.228Z,1.20
2018-06-23T02:02:19.494Z,1.27
2018-06-23T02:04:47.756Z,1.50
2018-06-23T02:07:16.022Z,0.97
2018-06-23T02:09:44.273Z,0.80
2018-06-23T02:12:12.549Z,1.73
2018-06-23T02:14:45.966Z,1.00
2018-06-23T02:17:19.589Z,2.30
2018-06-23T02:21:58.641Z,1.63
2018-06-23T02:24:32.327Z,1.70
2018-06-23T02:27:05.945Z,1.33
2018-06-23T02:29:39.607Z,1.57
2018-06-23T02:32:46.630Z,1.43
2018-06-23T02:35:14.893Z,1.67
2018-06-23T02:37:43.151Z,1.93
2018-06-23T02:40:11.415Z,2.20
2018-06-23T02:42:39.665Z,2.40
2018-06-23T02:45:07.943Z,2.20
2018-06-23T02:47:36.308Z,1.40
2018-06-23T02:50:04.753Z,1.70
2018-06-23T02:52:33.126Z,1.87
2018-06-23T02:55:01.560Z,2.03
2018-06-23T02:57:29.970Z,3.33
2018-06-23T02:59:58.159Z,2.87
2018-06-23T03:02:26.555Z,1.47
2018-06-23T03:04:54.907Z,2.90
2018-06-23T03:07:23.167Z,2.70
2018-06-23T03:09:51.417Z,2.60
2018-06-23T03:12:19.693Z,3.40
2018-06-23T03:14:47.924Z,2.83
2018-06-23T03:17:17.230Z,3.07
2018-06-23T03:19:51.928Z,1.97
2018-06-23T03:22:20.284Z,2.63
2018-06-23T03:24:48.518Z,2.90
2018-06-23T03:27:16.660Z,3.57
2018-06-23T03:29:44.935Z,3.33
2018-06-23T03:32:13.294Z,3.10
2018-06-23T03:34:41.566Z,2.40
2018-06-23T03:37:09.956Z,1.90
2018-06-23T03:39:38.183Z,3.00
2018-06-23T03:42:06.713Z,3.80
2018-06-23T03:44:35.090Z,2.67
2018-06-23T03:47:03.369Z,4.30
2018-06-23T03:49:31.568Z,2.30
2018-06-23T03:51:59.767Z,3.07
2018-06-23T03:54:28.006Z,1.93
2018-06-23T03:56:56.364Z,2.37
2018-06-23T03:59:24.598Z,3.10
2018-06-23T04:01:53.523Z,4.20
2018-06-23T04:04:21.769Z,2.07
2018-06-23T04:06:50.021Z,2.40
2018-06-23T04:09:18.297Z,2.77
2018-06-23T04:11:46.510Z,3.20
2018-06-23T04:14:14.761Z,2.40
2018-06-23T04:16:43.075Z,3.00
2018-06-23T04:19:11.246Z,4.17
2018-06-23T04:21:39.432Z,3.80
2018-06-23T04:24:07.633Z,3.13
2018-06-23T04:26:35.819Z,3.40
2018-06-23T04:29:04.088Z,3.30
2018-06-23T04:31:32.335Z,4.03
2018-06-23T04:34:00.523Z,2.80
2018-06-23T04:36:28.728Z,4.20
2018-06-23T04:38:56.977Z,3.33
2018-06-23T04:41:25.231Z,2.80
2018-06-23T04:43:53.521Z,3.90
2018-06-23T04:46:21.719Z,5.33
2018-06-23T04:48:49.965Z,3.23
2018-06-23T04:51:18.230Z,3.63
2018-06-23T04:53:47.633Z,2.87
2018-06-23T04:56:16.336Z,3.30
2018-06-23T04:58:44.588Z,3.03
2018-06-23T05:01:13.036Z,3.03
2018-06-23T05:03:41.276Z,3.40
2018-06-23T05:06:09.713Z,4.00
2018-06-23T05:08:38.680Z,3.73
2018-06-23T05:11:07.259Z,3.87
2018-06-23T05:13:35.781Z,3.17
2018-06-23T05:16:04.420Z,5.23
2018-06-23T05:18:32.780Z,4.30
2018-06-23T05:21:01.006Z,7.53
2018-06-23T05:23:29.289Z,4.80
2018-06-23T05:25:57.601Z,4.27
2018-06-23T05:28:25.835Z,4.00
2018-06-23T05:30:54.199Z,3.67
2018-06-23T05:33:23.136Z,3.47
2018-06-23T05:35:51.719Z,3.80
2018-06-23T05:38:19.908Z,4.20
2018-06-23T05:40:48.141Z,4.87
2018-06-23T05:43:16.409Z,3.90
2018-06-23T05:45:44.614Z,3.13
2018-06-23T05:48:13.086Z,3.10
2018-06-23T05:50:41.228Z,4.23
2018-06-23T05:53:09.452Z,2.93
2018-06-23T05:55:37.737Z,3.77
2018-06-23T05:58:05.933Z,3.77
2018-06-23T06:00:34.132Z,3.73
2018-06-23T06:03:02.320Z,3.70
2018-06-23T06:05:30.873Z,4.87
2018-06-23T06:07:59.131Z,3.33
2018-06-23T06:10:27.409Z,3.47
2018-06-23T06:12:55.615Z,3.33
2018-06-23T06:15:23.849Z,3.30
2018-06-23T06:17:52.163Z,3.50
2018-06-23T06:20:20.355Z,3.60
2018-06-23T06:22:48.606Z,3.27
2018-06-23T06:25:18.809Z,3.10
2018-06-23T06:27:47.092Z,2.60
2018-06-23T06:30:16.262Z,3.07
2018-06-23T06:32:44.481Z,2.70
2018-06-23T06:35:12.798Z,3.12
2018-06-23T06:37:40.802Z,3.27
2018-06-23T06:40:09.145Z,3.30
2018-06-23T06:42:37.352Z,3.50
2018-06-23T06:45:06.091Z,3.62
2018-06-23T06:47:34.392Z,3.73
2018-06-23T06:50:02.776Z,3.20
2018-06-23T06:52:31.335Z,3.03
2018-06-23T06:54:59.971Z,3.92
2018-06-23T06:57:28.238Z,2.70
2018-06-23T06:59:56.350Z,2.80
2018-06-23T07:02:24.652Z,3.30
2018-06-23T07:04:52.876Z,3.17
2018-06-23T07:07:21.686Z,4.97
2018-06-23T07:09:49.976Z,3.17
2018-06-23T07:12:18.163Z,2.93
2018-06-23T07:14:46.361Z,3.07
2018-06-23T07:17:14.755Z,2.40
2018-06-23T07:19:42.982Z,3.90
2018-06-23T07:22:11.184Z,3.53
2018-06-23T07:24:39.479Z,2.93
2018-06-23T07:27:08.072Z,3.87
2018-06-23T07:29:36.393Z,3.87
2018-06-23T07:32:04.792Z,3.27
2018-06-23T07:34:33.076Z,2.93
2018-06-23T07:37:01.354Z,3.10
2018-06-23T07:39:31.252Z,3.30
2018-06-23T07:41:59.457Z,2.53
2018-06-23T07:44:27.650Z,1.53
2018-06-23T07:46:55.951Z,2.50
2018-06-23T07:49:24.189Z,2.00
2018-06-23T07:51:52.391Z,2.53
2018-06-23T07:54:20.652Z,2.20
2018-06-23T07:56:48.622Z,2.87
2018-06-23T07:59:16.899Z,3.50
2018-06-23T08:01:44.956Z,2.47
2018-06-23T08:04:13.149Z,3.40
2018-06-23T08:06:41.389Z,2.80
2018-06-23T08:09:10.107Z,2.03
2018-06-23T08:11:38.490Z,3.57
2018-06-23T08:14:06.736Z,3.93
2018-06-23T08:16:35.069Z,2.50
2018-06-23T08:19:03.342Z,2.27
2018-06-23T08:21:31.528Z,2.77
2018-06-23T08:23:59.796Z,3.10
2018-06-23T08:26:28.123Z,1.97
2018-06-23T08:28:57.099Z,3.10
2018-06-23T08:31:25.340Z,3.23
2018-06-23T08:33:53.534Z,2.57
2018-06-23T08:36:21.824Z,2.97
2018-06-23T08:38:49.770Z,2.63
2018-06-23T08:41:18.201Z,2.90
2018-06-23T08:43:46.632Z,1.90
2018-06-23T08:46:14.813Z,2.17
2018-06-23T08:48:43.093Z,2.30
2018-06-23T08:51:11.271Z,1.87
2018-06-23T08:53:39.648Z,3.70
2018-06-23T08:56:07.950Z,3.10
2018-06-23T08:58:36.191Z,2.80
2018-06-23T09:01:04.823Z,2.10
2018-06-23T09:03:33.023Z,3.40
2018-06-23T09:06:01.352Z,2.97
2018-06-23T09:08:29.632Z,2.13
2018-06-23T09:10:57.890Z,3.53
2018-06-23T09:13:26.083Z,2.87
2018-06-23T09:15:54.340Z,1.87
2018-06-23T09:18:22.523Z,2.30
2018-06-23T09:20:50.777Z,2.40
2018-06-23T09:23:19.015Z,2.00
2018-06-23T09:25:47.325Z,2.37
2018-06-23T09:28:15.529Z,2.73
2018-06-23T09:30:43.730Z,2.10
2018-06-23T09:33:11.941Z,2.20
2018-06-23T09:35:40.200Z,2.50
2018-06-23T09:38:08.456Z,2.30
2018-06-23T09:40:36.983Z,2.20
2018-06-23T09:43:05.254Z,2.30
2018-06-23T09:45:33.463Z,2.47
2018-06-23T09:48:01.661Z,3.70
2018-06-23T09:50:29.852Z,3.93
2018-06-23T09:52:58.109Z,1.90
2018-06-23T09:55:26.127Z,2.47
2018-06-23T09:57:54.353Z,2.57
2018-06-23T10:00:28.866Z,1.63
2018-06-23T10:02:58.369Z,2.30
2018-06-23T10:05:26.628Z,2.70
2018-06-23T10:07:54.951Z,1.83
2018-06-23T10:10:23.212Z,2.60
2018-06-23T10:12:51.518Z,1.90
2018-06-23T10:15:19.791Z,2.60
2018-06-23T10:17:48.069Z,2.60
2018-06-23T10:20:16.267Z,2.20
2018-06-23T10:22:44.431Z,2.00
2018-06-23T10:25:12.703Z,1.70
2018-06-23T10:27:40.880Z,2.83
2018-06-23T10:30:09.096Z,2.33
2018-06-23T10:32:37.161Z,2.60
2018-06-23T10:35:05.591Z,2.07
2018-06-23T10:37:33.892Z,2.50
2018-06-23T10:40:02.357Z,2.00
2018-06-23T10:42:30.627Z,1.90
2018-06-23T10:44:58.866Z,2.27
2018-06-23T10:47:27.150Z,2.07
2018-06-23T10:49:55.628Z,1.80
2018-06-23T10:52:23.906Z,1.83
2018-06-23T10:54:52.191Z,2.10
2018-06-23T10:57:20.602Z,3.07
2018-06-23T10:59:48.551Z,1.97
2018-06-23T11:02:16.751Z,1.60
2018-06-23T11:04:45.389Z,2.03
2018-06-23T11:07:13.668Z,1.80
2018-06-23T11:09:41.931Z,2.00
2018-06-23T11:12:10.234Z,2.37
2018-06-23T11:14:38.481Z,1.33
2018-06-23T11:17:06.740Z,1.90
2018-06-23T11:19:34.920Z,1.80
2018-06-23T11:22:03.126Z,1.80
2018-06-23T11:24:31.447Z,2.10
2018-06-23T11:26:59.689Z,1.70
2018-06-23T11:29:27.930Z,1.30
2018-06-23T11:31:56.112Z,1.40
2018-06-23T11:34:24.337Z,1.60
2018-06-23T11:36:52.532Z,1.67
2018-06-23T11:39:20.791Z,1.33
2018-06-23T11:41:49.059Z,1.33
2018-06-23T11:44:17.337Z,1.00
2018-06-23T11:46:45.588Z,2.37
2018-06-23T11:49:13.860Z,1.70
2018-06-23T11:51:42.131Z,1.10
2018-06-23T11:54:10.406Z,1.37
2018-06-23T11:56:38.663Z,0.90
2018-06-23T11:59:06.871Z,1.20
2018-06-23T12:01:35.082Z,1.40
2018-06-23T12:04:03.354Z,1.00
2018-06-23T12:06:31.573Z,1.20
2018-06-23T12:08:59.798Z,0.93
2018-06-23T12:11:28.054Z,1.30
2018-06-23T12:13:56.283Z,0.87
2018-06-23T12:16:24.464Z,1.00
2018-06-23T12:18:52.713Z,1.13
2018-06-23T12:21:20.666Z,0.70
2018-06-23T12:23:48.937Z,1.30
2018-06-23T12:26:17.215Z,0.80
2018-06-23T12:28:45.419Z,0.73
2018-06-23T12:31:13.638Z,0.97
2018-06-23T12:33:41.905Z,0.70
2018-06-23T12:36:10.163Z,1.10
2018-06-23T12:38:38.336Z,1.10
2018-06-23T12:41:06.529Z,0.90
2018-06-23T12:43:34.760Z,1.20
2018-06-23T12:46:03.046Z,1.73
2018-06-23T12:48:31.342Z,1.07
2018-06-23T12:50:59.536Z,1.03
2018-06-23T12:53:27.642Z,1.00
2018-06-23T12:55:55.876Z,1.43
2018-06-23T12:58:24.149Z,1.17
2018-06-23T13:00:52.431Z,1.90
2018-06-23T13:03:20.704Z,1.47
2018-06-23T13:05:48.960Z,1.07
2018-06-23T13:08:17.219Z,1.00
2018-06-23T13:10:45.431Z,1.27
2018-06-23T13:13:13.646Z,0.93
2018-06-23T13:15:41.906Z,1.80
2018-06-23T13:18:10.210Z,0.80
2018-06-23T13:20:39.068Z,1.80
2018-06-23T13:23:07.256Z,1.07
2018-06-23T13:25:35.493Z,1.67
2018-06-23T13:28:03.852Z,1.10
2018-06-23T13:30:32.055Z,1.43
2018-06-23T13:33:00.275Z,1.77
2018-06-23T13:35:28.541Z,1.20
2018-06-23T13:37:56.782Z,1.33
2018-06-23T13:40:25.087Z,1.00
2018-06-23T13:42:53.165Z,1.10
2018-06-23T13:45:21.433Z,1.30
2018-06-23T13:47:49.697Z,1.70
2018-06-23T13:50:17.963Z,1.27
2018-06-23T13:52:46.199Z,1.53
2018-06-23T13:55:14.414Z,1.30
2018-06-23T13:57:42.612Z,1.63
2018-06-23T14:00:11.550Z,1.93
2018-06-23T14:02:40.111Z,1.70
2018-06-23T14:05:08.299Z,2.77
2018-06-23T14:07:36.595Z,2.43
2018-06-23T14:10:05.292Z,1.87
2018-06-23T14:12:33.539Z,1.40
2018-06-23T14:15:01.668Z,1.50
2018-06-23T14:17:29.909Z,1.73
2018-06-23T14:19:58.123Z,1.70
2018-06-23T14:22:26.367Z,1.60
2018-06-23T14:24:54.628Z,1.57
2018-06-23T14:27:23.084Z,1.57
2018-06-23T14:29:52.150Z,1.07
2018-06-23T14:32:20.469Z,1.63
2018-06-23T14:34:48.670Z,2.30
2018-06-23T14:37:16.914Z,1.43
2018-06-23T14:39:45.210Z,1.60
2018-06-23T14:42:13.388Z,1.83
2018-06-23T14:44:41.673Z,2.07
2018-06-23T14:47:10.005Z,1.83
2018-06-23T14:49:38.230Z,2.47
2018-06-23T14:52:06.541Z,2.40
2018-06-23T14:54:34.820Z,2.00
2018-06-23T14:57:03.240Z,3.10
2018-06-23T14:59:31.423Z,1.80
2018-06-23T15:01:59.698Z,1.87
2018-06-23T15:04:27.979Z,2.23
2018-06-23T15:06:56.193Z,2.90
2018-06-23T15:09:35.834Z,2.30
2018-06-23T15:12:15.437Z,2.20
2018-06-23T15:14:43.836Z,2.87
2018-06-23T15:17:12.313Z,2.80
2018-06-23T15:19:40.544Z,2.53
2018-06-23T15:22:08.780Z,2.00
2018-06-23T15:24:36.976Z,2.23
2018-06-23T15:27:05.695Z,2.40
2018-06-23T15:29:33.894Z,1.80
2018-06-23T15:32:02.136Z,1.90
2018-06-23T15:34:30.315Z,2.37
2018-06-23T15:36:58.597Z,1.73
2018-06-23T15:39:26.924Z,1.77
2018-06-23T15:41:55.111Z,1.87
2018-06-23T15:44:23.372Z,1.63
2018-06-23T15:46:51.621Z,3.20
2018-06-23T15:49:19.894Z,2.00
2018-06-23T15:51:48.460Z,1.97
2018-06-23T15:54:16.771Z,2.17
2018-06-23T15:56:45.010Z,1.57
2018-06-23T15:59:13.255Z,1.50
2018-06-23T16:01:41.463Z,1.83
2018-06-23T16:04:09.664Z,1.40
2018-06-23T16:06:37.865Z,2.37
2018-06-23T16:09:08.474Z,1.90
2018-06-23T16:11:36.667Z,1.43
2018-06-23T16:14:04.933Z,3.23
2018-06-23T16:16:33.233Z,1.87
2018-06-23T16:19:01.483Z,2.50
2018-06-23T16:21:29.840Z,1.77
2018-06-23T16:23:58.031Z,1.73
2018-06-23T16:26:26.264Z,1.90
2018-06-23T16:28:54.510Z,2.07
2018-06-23T16:31:22.756Z,1.23
2018-06-23T16:33:50.721Z,1.80
2018-06-23T16:36:18.971Z,1.90
2018-06-23T16:38:47.537Z,1.10
2018-06-23T16:41:15.721Z,1.70
2018-06-23T16:43:43.969Z,2.23
2018-06-23T16:46:12.218Z,1.87
2018-06-23T16:48:40.403Z,2.10
2018-06-23T16:51:08.668Z,2.17
2018-06-23T16:53:36.859Z,1.50
2018-06-23T16:56:05.297Z,1.60
2018-06-23T16:58:33.511Z,2.63
2018-06-23T17:01:01.778Z,2.07
2018-06-23T17:03:30.070Z,1.50
2018-06-23T17:05:58.232Z,1.53
2018-06-23T17:08:26.527Z,1.90
2018-06-23T17:10:54.707Z,2.00
2018-06-23T17:13:22.959Z,1.70
2018-06-23T17:15:51.224Z,1.47
2018-06-23T17:18:19.416Z,1.23
2018-06-23T17:20:47.628Z,3.30
2018-06-23T17:23:15.868Z,1.93
2018-06-23T17:25:44.150Z,1.40
2018-06-23T17:28:12.687Z,4.53
2018-06-23T17:30:41.028Z,3.67
2018-06-23T17:33:09.214Z,2.00
2018-06-23T17:35:37.638Z,1.63
2018-06-23T17:38:05.908Z,1.30
2018-06-23T17:40:34.168Z,2.17
2018-06-23T17:43:02.787Z,1.37
2018-06-23T17:45:31.045Z,1.60
2018-06-23T17:47:59.329Z,1.43
2018-06-23T17:50:27.536Z,1.37
2018-06-23T17:52:55.736Z,1.50
2018-06-23T17:55:24.003Z,1.43
2018-06-23T17:57:52.333Z,1.93
2018-06-23T18:00:20.496Z,2.03
2018-06-23T18:02:48.701Z,2.27
2018-06-23T18:05:16.914Z,1.40
2018-06-23T18:07:45.253Z,1.63
2018-06-23T18:10:13.508Z,1.80
2018-06-23T18:12:41.704Z,1.50
2018-06-23T18:15:09.982Z,1.30
2018-06-23T18:17:38.223Z,2.20
2018-06-23T18:20:06.488Z,1.77
2018-06-23T18:22:35.000Z,1.40
2018-06-23T18:25:03.245Z,1.80
2018-06-23T18:27:31.451Z,2.40
2018-06-23T18:29:59.688Z,1.30
2018-06-23T18:32:28.034Z,2.03
2018-06-23T18:34:56.226Z,1.50
2018-06-23T18:37:24.495Z,1.47
2018-06-23T18:39:52.750Z,1.30
2018-06-23T18:42:21.152Z,2.10
2018-06-23T18:44:49.343Z,1.87
2018-06-23T18:47:17.570Z,1.83
2018-06-23T18:49:45.859Z,1.27
2018-06-23T18:52:14.268Z,1.40
2018-06-23T18:54:42.546Z,2.00
2018-06-23T18:57:11.086Z,2.17
2018-06-23T18:59:39.435Z,2.20
2018-06-23T19:02:07.684Z,1.80
2018-06-23T19:04:35.923Z,1.77
2018-06-23T19:07:04.182Z,1.63
2018-06-23T19:09:32.458Z,1.77
2018-06-23T19:12:00.704Z,2.10
2018-06-23T19:14:28.992Z,2.17
2018-06-23T19:16:57.270Z,2.07
2018-06-23T19:19:25.464Z,2.07
2018-06-23T19:21:53.709Z,1.40
2018-06-23T19:24:21.958Z,2.10
2018-06-23T19:26:50.208Z,1.73
2018-06-23T19:29:18.427Z,1.63
2018-06-23T19:31:46.621Z,1.80
2018-06-23T19:34:14.895Z,3.40
2018-06-23T19:36:43.156Z,2.03
2018-06-23T19:39:11.835Z,2.23
2018-06-23T19:41:40.070Z,1.20
2018-06-23T19:44:08.364Z,1.50
2018-06-23T19:46:36.936Z,1.33
2018-06-23T19:49:05.201Z,1.27
2018-06-23T19:51:33.465Z,1.90
2018-06-23T19:54:01.732Z,1.53
2018-06-23T19:56:29.970Z,1.90
2018-06-23T19:58:58.177Z,1.47
2018-06-23T20:01:26.372Z,2.53
2018-06-23T20:03:54.592Z,1.60
2018-06-23T20:06:22.802Z,1.73
2018-06-23T20:08:51.082Z,1.90
2018-06-23T20:11:19.278Z,1.63
2018-06-23T20:13:47.480Z,2.23
2018-06-23T20:16:15.671Z,2.07
2018-06-23T20:18:43.930Z,1.43
2018-06-23T20:21:12.122Z,2.27
2018-06-23T20:23:40.397Z,1.90
2018-06-23T20:26:08.588Z,2.00
2018-06-23T20:28:36.843Z,1.90
2018-06-23T20:31:05.035Z,1.47
2018-06-23T20:33:33.314Z,1.73
2018-06-23T20:36:01.524Z,2.40
2018-06-23T20:38:29.752Z,1.80
2018-06-23T20:40:58.025Z,2.40
2018-06-23T20:43:26.207Z,2.23
2018-06-23T20:45:54.613Z,1.60
2018-06-23T20:48:22.835Z,2.30
2018-06-23T20:50:51.084Z,2.00
2018-06-23T20:53:19.563Z,1.97
2018-06-23T20:55:47.843Z,2.50
2018-06-23T20:58:16.029Z,1.90
2018-06-23T21:00:44.251Z,1.53
2018-06-23T21:03:12.525Z,1.70
2018-06-23T21:05:41.195Z,1.40
2018-06-23T21:08:09.452Z,1.80
2018-06-23T21:10:42.054Z,3.70
2018-06-23T21:13:10.777Z,2.20
2018-06-23T21:15:39.056Z,1.50
2018-06-23T21:18:07.567Z,2.20
2018-06-23T21:20:35.748Z,2.00
2018-06-23T21:23:04.240Z,1.93
2018-06-23T21:25:32.419Z,1.90
2018-06-23T21:28:00.670Z,1.93
2018-06-23T21:30:28.850Z,2.07
2018-06-23T21:32:57.034Z,1.60
2018-06-23T21:35:25.750Z,1.90
2018-06-23T21:37:54.435Z,2.07
2018-06-23T21:40:22.791Z,2.70
2018-06-23T21:42:51.049Z,1.67
2018-06-23T21:45:22.243Z,2.30
2018-06-23T21:47:50.435Z,2.10
2018-06-23T21:50:18.692Z,1.50
2018-06-23T21:52:46.961Z,1.70
2018-06-23T21:55:15.266Z,2.50
2018-06-23T21:57:43.458Z,1.60
2018-06-23T22:00:23.968Z,2.77
2018-06-23T22:02:52.213Z,2.23
2018-06-23T22:05:20.452Z,2.50
2018-06-23T22:07:48.701Z,2.20
2018-06-23T22:10:16.977Z,2.20
2018-06-23T22:12:45.234Z,2.10
2018-06-23T22:15:13.488Z,2.00
2018-06-23T22:17:41.760Z,2.30
2018-06-23T22:20:09.915Z,2.50
2018-06-23T22:22:38.113Z,1.50
2018-06-23T22:25:06.295Z,2.50
2018-06-23T22:27:34.565Z,2.50
2018-06-23T22:30:02.813Z,1.87
2018-06-23T22:32:31.056Z,2.93
2018-06-23T22:34:59.302Z,2.80
2018-06-23T22:37:27.508Z,1.60
2018-06-23T22:39:55.775Z,2.23
2018-06-23T22:42:23.954Z,2.67
2018-06-23T22:44:52.212Z,1.50
2018-06-23T22:47:20.467Z,2.13
2018-06-23T22:49:48.694Z,2.43
2018-06-23T22:52:16.945Z,1.97
2018-06-23T22:54:45.219Z,2.13
2018-06-23T22:57:13.578Z,2.10
2018-06-23T22:59:41.744Z,1.70
2018-06-23T23:02:10.172Z,1.57
2018-06-23T23:04:38.499Z,2.53
2018-06-23T23:07:06.684Z,2.10
2018-06-23T23:09:34.978Z,3.03
2018-06-23T23:12:03.919Z,2.23
2018-06-23T23:14:31.920Z,2.10
2018-06-23T23:17:00.189Z,2.17
2018-06-23T23:19:28.591Z,2.13
2018-06-23T23:21:57.207Z,2.60
2018-06-23T23:24:25.407Z,2.00
2018-06-23T23:26:53.427Z,2.10
2018-06-23T23:29:21.684Z,2.60
2018-06-23T23:31:49.955Z,3.40
2018-06-23T23:34:18.374Z,1.70
2018-06-23T23:36:46.617Z,2.00
2018-06-23T23:39:14.810Z,2.27
2018-06-23T23:41:43.062Z,3.07
2018-06-23T23:44:11.320Z,2.10
2018-06-23T23:46:39.551Z,1.90
2018-06-23T23:49:07.932Z,2.37
2018-06-23T23:51:36.116Z,2.03
2018-06-23T23:54:04.391Z,1.50
2018-06-23T23:56:32.567Z,2.30
2018-06-23T23:59:00.820Z,2.43
